createdAt,value
2022-12-08T00:00:02.312Z,52.42782115801752
2022-12-08T00:15:02.422Z,51.634758025608676
2022-12-08T00:30:01.457Z,51.55110983730784
2022-12-08T00:45:02.146Z,51.76073894389516
2022-12-08T01:00:02.335Z,52.31866116805828
2022-12-08T01:15:02.973Z,52.81448285780473
2022-12-08T01:30:02.461Z,53.314329801079346
2022-12-08T01:45:01.490Z,53.45750584413769
2022-12-08T02:00:02.643Z,52.95126149047156
2022-12-08T02:15:04.977Z,52.36060319657205
2022-12-08T02:30:02.715Z,52.26985180699359
2022-12-08T02:45:01.642Z,51.967932465022145
2022-12-08T03:00:01.435Z,52.28346993465176
2022-12-08T03:15:01.385Z,52.29167117517211
2022-12-08T03:30:02.500Z,52.21815368192165
2022-12-08T03:45:01.567Z,52.3671321843463
2022-12-08T04:00:02.705Z,51.949003189185056
2022-12-08T04:15:01.699Z,52.22954908286336
2022-12-08T04:30:01.717Z,52.206113549611935
2022-12-08T04:45:01.805Z,52.05117154441303
2022-12-08T05:00:01.935Z,52.4237524724979
2022-12-08T05:15:01.962Z,52.37044155602033
2022-12-08T05:30:01.995Z,51.81003174243504
2022-12-08T05:45:01.848Z,52.6232035674939
2022-12-08T06:00:01.679Z,52.419474468511225
2022-12-08T06:15:01.521Z,52.33072189711504
2022-12-08T06:30:02.645Z,52.436888506107024
2022-12-08T06:45:01.717Z,53.14565113001056
2022-12-08T07:00:02.998Z,52.6048528314984
2022-12-08T07:15:01.993Z,52.44584273185984
2022-12-08T07:30:01.854Z,52.2907122384835
2022-12-08T07:45:01.666Z,52.28436637315422
2022-12-08T08:00:02.655Z,51.56578826834681
2022-12-08T08:15:01.722Z,51.77805147469446
2022-12-08T08:30:01.593Z,50.837399066149814
2022-12-08T08:45:01.910Z,51.47289719356941
2022-12-08T09:00:01.731Z,51.33753721550452
2022-12-08T09:15:01.595Z,50.40225954365677
2022-12-08T09:30:02.719Z,50.272333672927466
2022-12-08T09:45:01.610Z,50.66148445357561
2022-12-08T10:00:02.630Z,50.89745056070919
2022-12-08T10:15:01.581Z,50.19699940221985
2022-12-08T10:30:01.477Z,49.53548264184395
2022-12-08T10:45:01.322Z,49.007391732927864
2022-12-08T11:00:02.255Z,48.5828881630175
2022-12-08T11:15:02.094Z,48.394075390998054
2022-12-08T11:30:02.140Z,48.25028911282286
2022-12-08T11:45:02.231Z,47.73730440736357
2022-12-08T12:00:02.230Z,48.38223517440648
2022-12-08T12:15:02.104Z,48.70853214626969
2022-12-08T12:30:01.764Z,48.84544262965992
2022-12-08T12:45:01.518Z,48.14698628505161
2022-12-08T13:00:02.363Z,48.470987777428476
2022-12-08T13:15:01.995Z,49.10463433538929
2022-12-08T13:30:01.797Z,48.95022412969399
2022-12-08T13:45:48.512Z,49.03016555128522
2022-12-08T14:00:02.034Z,49.45544981702777
2022-12-08T14:15:04.228Z,49.64034488982479
2022-12-08T14:30:02.354Z,49.98241065183014
2022-12-08T14:45:02.009Z,51.46480657862134
2022-12-08T15:00:01.742Z,51.5263303937999
2022-12-08T15:15:01.419Z,51.69184645176265
2022-12-08T15:30:02.217Z,50.76871827439899
2022-12-08T15:45:01.952Z,50.7370853633334
2022-12-08T16:00:01.617Z,51.57064327598788
2022-12-08T16:15:48.551Z,52.18488426310396
2022-12-08T16:30:02.131Z,51.36489281470935
2022-12-08T16:45:02.115Z,51.61298170323207
2022-12-08T17:00:02.385Z,52.05669146891073
2022-12-08T17:15:02.244Z,53.37585363289034
2022-12-08T17:30:01.983Z,51.165702414013715
2022-12-08T17:45:01.641Z,51.092162943353436
2022-12-08T18:00:02.337Z,51.99267937849999
2022-12-08T18:15:02.200Z,51.993244559507794
2022-12-08T18:30:02.213Z,52.101213922480014
2022-12-08T18:45:02.024Z,50.642247893296094
2022-12-08T19:00:01.653Z,50.07749853600212
2022-12-08T19:15:02.322Z,51.024213216160916
2022-12-08T19:30:02.037Z,49.80495866164954
2022-12-08T19:45:01.701Z,51.70847733346684
2022-12-08T20:00:02.381Z,51.69473338452744
2022-12-08T20:15:02.055Z,51.86635036698864
2022-12-08T20:30:01.829Z,51.98942913477207
2022-12-08T20:45:01.520Z,52.91639176040865
2022-12-08T21:00:02.424Z,52.8994702909096
2022-12-08T21:15:02.352Z,50.71312957899615
2022-12-08T21:30:02.231Z,49.00965102055952
2022-12-08T21:45:02.014Z,48.74294342454287
2022-12-08T22:00:01.734Z,48.473415768231966
2022-12-08T22:15:01.782Z,49.12691505976456
2022-12-08T22:30:02.730Z,50.97845758829335
2022-12-08T22:45:02.849Z,51.937076439505304
2022-12-08T23:00:02.746Z,51.56447792682122
2022-12-08T23:15:02.520Z,50.48776492575664
2022-12-08T23:30:02.292Z,49.98044678441265
2022-12-08T23:45:01.973Z,48.56734437273863
